createdAt,value
2016-02-26T14:06:34.538Z,36
2016-02-26T14:10:26.127Z,76
2016-02-26T14:11:25.536Z,64
2016-02-26T14:12:35.679Z,64
2016-02-26T14:13:35.072Z,60
2016-02-26T14:14:26.325Z,56
2016-02-26T14:15:27.015Z,56
2016-02-26T14:16:46.048Z,52
2016-02-26T14:17:47.113Z,48
2016-02-26T14:18:46.804Z,48
2016-02-26T14:19:45.650Z,48
2016-02-26T14:20:46.606Z,48
2016-02-26T14:24:18.758Z,44
2016-02-26T14:25:19.854Z,44
2016-02-26T14:26:18.545Z,44
2016-02-26T14:27:18.500Z,44
2016-02-26T14:28:18.175Z,44
2016-02-26T14:29:19.911Z,44
2016-02-26T14:30:19.445Z,40
2016-02-26T14:33:24.219Z,44
2016-02-26T14:34:24.878Z,40
2016-02-26T14:35:24.491Z,40
2016-02-26T14:36:23.711Z,40
2016-02-26T14:37:24.746Z,84
2016-02-26T14:38:24.999Z,80
2016-02-26T14:39:23.688Z,88
2016-02-26T14:40:32.472Z,84
2016-02-26T14:41:24.178Z,88
2016-02-26T14:42:24.713Z,88
2016-02-26T14:43:23.262Z,92
2016-02-26T14:44:24.702Z,92
2016-02-26T14:45:23.736Z,96
2016-02-26T14:46:25.301Z,96
2016-02-26T14:47:23.991Z,96
2016-02-26T14:48:25.057Z,100
2016-02-26T15:22:48.367Z,5304
2016-02-26T15:23:55.807Z,5152
2016-02-26T15:24:54.576Z,5020
2016-02-26T15:25:46.078Z,4860
2016-02-26T15:26:59.924Z,4580
2016-02-26T15:27:46.052Z,4400
2016-02-26T15:28:47.336Z,4168
2016-02-26T15:29:46.214Z,3956
2016-02-26T15:30:46.389Z,3752
2016-02-26T15:31:45.984Z,3544
2016-02-26T15:32:46.815Z,3332
2016-02-26T15:33:47.756Z,3132
2016-02-26T15:36:24.561Z,2716
2016-02-26T15:37:09.358Z,2608
2016-02-26T15:39:41.413Z,2428
2016-02-26T15:40:49.556Z,2320
2016-02-26T15:41:27.714Z,2276
2016-02-26T15:42:27.921Z,2196
2016-02-26T15:43:27.486Z,2116
2016-02-26T15:44:28.130Z,2040
2016-02-26T15:45:55.382Z,1948
2016-02-26T15:46:49.713Z,1896
2016-02-26T15:47:47.730Z,1848
2016-02-26T15:48:34.968Z,1812
2016-02-26T15:49:37.768Z,1764
2016-02-26T15:50:52.754Z,1720
2016-02-26T15:51:28.023Z,1708
2016-02-26T15:52:31.307Z,1676
2016-02-26T15:53:57.669Z,1648
2016-02-26T15:54:38.796Z,1636
2016-02-26T15:55:49.799Z,1612
2016-02-26T15:56:37.927Z,1592
2016-02-26T15:57:40.274Z,1564
2016-02-26T15:58:39.026Z,1528
2016-02-26T15:59:39.217Z,1488
2016-02-26T16:01:10.579Z,1428
2016-02-26T16:01:38.425Z,1408
2016-02-26T16:02:48.568Z,1368
2016-02-26T16:03:41.228Z,1344
2016-02-26T16:04:59.137Z,1308
2016-02-26T16:05:40.826Z,1280
2016-02-26T16:06:38.470Z,1248
2016-02-26T16:07:38.989Z,1212
2016-02-26T16:08:41.178Z,1180
2016-02-26T16:10:08.228Z,1132
2016-02-26T16:10:39.292Z,1116
2016-02-26T16:11:41.733Z,1064
2016-02-26T16:12:38.970Z,1012
2016-02-26T16:13:41.425Z,960
2016-02-26T16:14:47.725Z,912
2016-02-26T16:15:40.744Z,880
2016-02-26T16:16:49.402Z,836
2016-02-26T16:17:40.077Z,796
2016-02-26T16:18:57.268Z,736
2016-02-26T16:20:40.774Z,664
2016-02-26T16:21:38.510Z,624
2016-02-26T16:22:39.779Z,584
2016-02-26T16:23:39.265Z,548
2016-02-26T16:24:38.596Z,512
2016-02-26T16:25:38.255Z,476
2016-02-26T16:26:38.601Z,444
2016-02-26T16:27:49.073Z,408
2016-02-26T16:28:39.060Z,384
2016-02-26T16:29:42.829Z,356
2016-02-26T16:30:38.441Z,328
2016-02-26T16:31:38.474Z,304
2016-02-26T16:32:39.134Z,280
2016-02-26T16:33:38.761Z,256
2016-02-26T16:35:39.392Z,216
2016-02-26T16:37:10.066Z,188
2016-02-26T16:37:38.912Z,180
2016-02-26T16:38:38.837Z,164
2016-02-26T16:39:38.809Z,148
2016-02-26T16:41:38.408Z,124
2016-02-26T16:42:38.645Z,108
2016-02-26T16:43:38.569Z,100
2016-02-26T16:44:38.447Z,88
